Time;durP1;ratioP1;P1;durP2;ratioP2;P2;SDS_P1;SDS_P2;PMS_P1;PMS_P2;Temp;Humidity;BMP_temperature;BMP_pressure;BME280_temperature;BME280_humidity;BME280_pressure;Samples;Min_cycle;Max_cycle;Signal;HPM_P1;HPM_P2
2023/06/17 00:01:05;;;;;;;1999.90;999.90;;;17.10;99.90;;;;;;5072213;28;20427;-69
2023/06/17 00:03:32;;;;;;;1999.90;999.90;;;17.10;99.90;;;;;;5054488;28;20501;-69
2023/06/17 00:05:58;;;;;;;1999.90;999.90;;;17.20;99.90;;;;;;5072968;28;20438;-68
2023/06/17 00:08:25;;;;;;;1999.90;999.90;;;17.10;99.90;;;;;;5073429;28;20403;-68
2023/06/17 00:10:53;;;;;;;1999.90;999.90;;;17.10;99.90;;;;;;5072754;28;20408;-68
2023/06/17 00:13:20;;;;;;;1999.90;999.90;;;17.00;99.90;;;;;;5072598;28;20415;-68
2023/06/17 00:15:50;;;;;;;1999.90;999.90;;;17.00;99.90;;;;;;5055292;28;20438;-68
2023/06/17 00:18:19;;;;;;;1999.90;999.90;;;17.00;99.90;;;;;;5072962;28;20431;-67
2023/06/17 00:20:46;;;;;;;1999.90;999.90;;;17.00;99.90;;;;;;5072433;28;20435;-67
2023/06/17 00:23:13;;;;;;;1999.90;999.90;;;17.00;99.90;;;;;;5072742;28;20411;-69
2023/06/17 00:25:39;;;;;;;1999.90;999.90;;;17.00;99.90;;;;;;5072712;28;20828;-68
2023/06/17 00:28:07;;;;;;;1999.90;999.90;;;17.00;99.90;;;;;;5066830;28;20424;-68
2023/06/17 00:30:34;;;;;;;1999.90;999.90;;;17.00;99.90;;;;;;5071442;28;20902;-68
2023/06/17 00:33:00;;;;;;;1999.90;999.90;;;17.00;99.90;;;;;;5072615;28;20403;-67
2023/06/17 00:35:27;;;;;;;1999.90;999.90;;;17.00;99.90;;;;;;5072480;28;20464;-68
2023/06/17 00:37:54;;;;;;;1999.90;999.90;;;17.10;99.90;;;;;;5067180;28;20782;-71
2023/06/17 00:40:20;;;;;;;1999.90;999.90;;;17.00;99.90;;;;;;5058117;28;20437;-66
2023/06/17 00:42:47;;;;;;;1999.90;999.90;;;17.00;99.90;;;;;;5058781;28;20436;-67
2023/06/17 00:45:15;;;;;;;1999.90;999.90;;;17.00;99.90;;;;;;5067443;28;20419;-64
2023/06/17 00:47:42;;;;;;;1999.90;999.90;;;17.00;99.90;;;;;;5072212;28;20852;-70
2023/06/17 00:50:12;;;;;;;1999.90;999.90;;;17.10;99.90;;;;;;5066073;28;20872;-67
2023/06/17 00:52:40;;;;;;;1999.90;999.90;;;17.00;99.90;;;;;;5070607;28;20450;-67
2023/06/17 00:55:08;;;;;;;1999.90;999.90;;;17.10;99.90;;;;;;5072756;28;20420;-72
2023/06/17 00:57:37;;;;;;;1999.90;999.90;;;17.10;99.90;;;;;;5072506;28;20419;-67
2023/06/17 01:00:09;;;;;;;1999.90;999.90;;;17.20;99.90;;;;;;5072314;28;20424;-68
2023/06/17 01:02:40;;;;;;;1999.90;999.90;;;17.20;99.90;;;;;;5065350;28;20933;-67
2023/06/17 01:05:11;;;;;;;1999.90;999.90;;;17.20;99.90;;;;;;5072324;28;20937;-67
2023/06/17 01:07:50;;;;;;;1999.90;999.90;;;17.10;99.90;;;;;;5072974;28;20426;-68
2023/06/17 01:10:22;;;;;;;1999.90;999.90;;;17.10;99.90;;;;;;5072348;28;20501;-67
2023/06/17 01:12:50;;;;;;;1999.90;999.90;;;17.00;99.90;;;;;;5066581;28;20519;-68
2023/06/17 01:15:18;;;;;;;1999.90;999.90;;;17.00;99.90;;;;;;5054582;28;20848;-68
2023/06/17 01:17:47;;;;;;;1999.90;999.90;;;17.00;99.90;;;;;;5070673;28;20461;-67
2023/06/17 01:20:15;;;;;;;1999.90;999.90;;;17.10;99.90;;;;;;5071606;28;20453;-70
2023/06/17 01:22:42;;;;;;;1999.90;999.90;;;17.20;99.90;;;;;;5071272;28;20499;-67
2023/06/17 01:25:13;;;;;;;1999.90;999.90;;;17.00;99.90;;;;;;5064076;28;20430;-67
2023/06/17 01:27:41;;;;;;;1999.90;999.90;;;16.90;99.90;;;;;;5069794;28;20789;-67
2023/06/17 01:30:09;;;;;;;1999.90;999.90;;;16.90;99.90;;;;;;5071245;28;20477;-66
2023/06/17 01:32:35;;;;;;;1999.90;999.90;;;16.90;99.90;;;;;;5071211;28;20407;-68
2023/06/17 01:35:06;;;;;;;1999.90;999.90;;;16.80;99.90;;;;;;5071324;28;20411;-67
2023/06/17 01:37:38;;;;;;;1999.90;999.90;;;16.80;99.90;;;;;;5060664;28;20526;-67
2023/06/17 01:40:08;;;;;;;1999.90;999.90;;;16.80;99.90;;;;;;5070967;28;20473;-67
2023/06/17 01:42:41;;;;;;;1999.90;999.90;;;16.80;99.90;;;;;;5070269;28;20423;-67
2023/06/17 01:45:09;;;;;;;1999.90;999.90;;;16.90;99.90;;;;;;5071077;28;20848;-67
2023/06/17 01:47:36;;;;;;;1999.90;999.90;;;16.90;99.90;;;;;;5071322;28;20829;-70
2023/06/17 01:50:05;;;;;;;1999.90;999.90;;;16.80;99.90;;;;;;5067990;28;20917;-68
2023/06/17 01:52:31;;;;;;;1999.90;999.90;;;16.80;99.90;;;;;;5070878;28;20809;-67
2023/06/17 01:54:59;;;;;;;1999.90;999.90;;;16.70;99.90;;;;;;5070799;28;20890;-67
2023/06/17 01:57:26;;;;;;;1999.90;999.90;;;16.70;99.90;;;;;;5071200;28;20408;-68
2023/06/17 01:59:55;;;;;;;1999.90;999.90;;;16.70;99.90;;;;;;5070557;28;20420;-68
2023/06/17 02:02:22;;;;;;;1999.90;999.90;;;16.60;99.90;;;;;;5059068;28;20435;-67
2023/06/17 02:04:50;;;;;;;1999.90;999.90;;;16.60;99.90;;;;;;5070759;28;20411;-69
2023/06/17 02:07:17;;;;;;;1999.90;999.90;;;16.70;99.90;;;;;;5071042;28;20420;-65
2023/06/17 02:09:44;;;;;;;1999.90;999.90;;;16.70;99.90;;;;;;5070056;28;20414;-67
2023/06/17 02:12:11;;;;;;;1999.90;999.90;;;16.70;99.90;;;;;;5070195;28;20993;-66
2023/06/17 02:14:38;;;;;;;1999.90;999.90;;;16.60;99.90;;;;;;5061618;28;20797;-67
2023/06/17 02:17:08;;;;;;;1999.90;999.90;;;16.60;99.90;;;;;;5070589;28;20412;-65
2023/06/17 02:19:35;;;;;;;1999.90;999.90;;;16.60;99.90;;;;;;5070117;28;20424;-67
2023/06/17 02:22:02;;;;;;;1999.90;999.90;;;16.50;99.90;;;;;;5070183;28;20415;-68
2023/06/17 02:24:29;;;;;;;1999.90;999.90;;;16.50;99.90;;;;;;5070043;28;20442;-67
2023/06/17 02:26:56;;;;;;;1999.90;999.90;;;16.50;99.90;;;;;;5063036;28;20427;-70
2023/06/17 02:29:23;;;;;;;1999.90;999.90;;;16.50;99.90;;;;;;5065178;28;20423;-67
2023/06/17 02:31:50;;;;;;;1999.90;999.90;;;16.40;99.90;;;;;;5070155;28;20423;-67
2023/06/17 02:34:19;;;;;;;1999.90;999.90;;;16.30;99.90;;;;;;5070315;28;20501;-67
2023/06/17 02:36:45;;;;;;;1999.90;999.90;;;16.20;99.90;;;;;;5070026;28;20404;-67
2023/06/17 02:39:12;;;;;;;1999.90;999.90;;;16.10;99.90;;;;;;5066543;28;20825;-66
2023/06/17 02:41:39;;;;;;;1999.90;999.90;;;16.00;99.90;;;;;;5069399;28;20415;-69
2023/06/17 02:44:05;;;;;;;1999.90;999.90;;;16.00;99.90;;;;;;5070348;28;20411;-67
2023/06/17 02:46:32;;;;;;;1999.90;999.90;;;15.90;99.90;;;;;;5070204;28;20824;-67
2023/06/17 02:48:59;;;;;;;1999.90;999.90;;;15.80;99.90;;;;;;5053468;28;20424;-67
2023/06/17 02:51:27;;;;;;;1999.90;999.90;;;15.80;99.90;;;;;;5069283;28;20411;-69
2023/06/17 02:53:54;;;;;;;1999.90;999.90;;;15.70;99.90;;;;;;5069979;28;20424;-70
2023/06/17 02:56:21;;;;;;;1999.90;999.90;;;15.70;99.90;;;;;;5069482;28;20418;-67
2023/06/17 02:58:48;;;;;;;1999.90;999.90;;;15.60;99.90;;;;;;5070063;28;20436;-68
2023/06/17 03:01:16;;;;;;;1999.90;999.90;;;15.60;99.90;;;;;;5047374;28;20490;-67
2023/06/17 03:03:43;;;;;;;1999.90;999.90;;;15.40;99.90;;;;;;5068149;28;20428;-68
2023/06/17 03:06:09;;;;;;;1999.90;999.90;;;15.50;99.90;;;;;;5069800;28;20759;-67
2023/06/17 03:08:41;;;;;;;1999.90;999.90;;;15.50;99.90;;;;;;5069926;28;20412;-71
2023/06/17 03:11:07;;;;;;;1999.90;999.90;;;15.50;99.90;;;;;;5059685;28;20463;-68
2023/06/17 03:13:34;;;;;;;1999.90;999.90;;;15.30;99.90;;;;;;5066449;28;20866;-67
2023/06/17 03:16:02;;;;;;;1999.90;999.90;;;15.30;99.90;;;;;;5069824;28;20416;-67
2023/06/17 03:18:29;;;;;;;1999.90;999.90;;;15.30;99.90;;;;;;5069945;28;20419;-67
2023/06/17 03:20:56;;;;;;;1999.90;999.90;;;15.30;99.90;;;;;;5069828;28;20496;-68
2023/06/17 03:23:24;;;;;;;1999.90;999.90;;;15.20;99.90;;;;;;5060237;28;20428;-67
2023/06/17 03:25:53;;;;;;;1999.90;999.90;;;15.20;99.90;;;;;;5069875;28;20416;-67
2023/06/17 03:28:20;;;;;;;1999.90;999.90;;;15.30;99.90;;;;;;5070002;28;20460;-69
2023/06/17 03:30:47;;;;;;;1999.90;999.90;;;15.20;99.90;;;;;;5069571;28;20411;-69
2023/06/17 03:33:14;;;;;;;1999.90;999.90;;;15.20;99.90;;;;;;5061060;28;20435;-66
2023/06/17 03:35:41;;;;;;;1999.90;999.90;;;15.30;99.90;;;;;;5069534;28;20426;-69
2023/06/17 03:38:09;;;;;;;1999.90;999.90;;;15.30;99.90;;;;;;5069717;28;21150;-68
2023/06/17 03:40:35;;;;;;;1999.90;999.90;;;15.30;99.90;;;;;;5069116;28;20802;-69
2023/06/17 03:43:03;;;;;;;1999.90;999.90;;;15.30;99.90;;;;;;5061492;28;20431;-69
2023/06/17 03:45:30;;;;;;;1999.90;999.90;;;15.30;99.90;;;;;;5069446;28;20416;-69
2023/06/17 03:47:57;;;;;;;1999.90;999.90;;;15.30;99.90;;;;;;5062610;28;20434;-69
2023/06/17 03:50:24;;;;;;;1999.90;999.90;;;15.40;99.90;;;;;;5069463;28;20415;-69
2023/06/17 03:52:51;;;;;;;1999.90;999.90;;;15.40;99.90;;;;;;5062559;28;20429;-70
2023/06/17 03:55:17;;;;;;;1999.90;999.90;;;15.30;99.90;;;;;;5069699;28;20419;-69
2023/06/17 03:57:44;;;;;;;1999.90;999.90;;;15.30;99.90;;;;;;5069852;28;20450;-69
2023/06/17 04:00:13;;;;;;;1999.90;999.90;;;15.30;99.90;;;;;;5069269;28;20426;-67
2023/06/17 04:02:41;;;;;;;1999.90;999.90;;;15.50;99.90;;;;;;5069519;28;20412;-67
2023/06/17 04:05:09;;;;;;;1999.90;999.90;;;15.60;99.90;;;;;;5063490;28;20935;-68
2023/06/17 04:07:38;;;;;;;1999.90;999.90;;;15.80;99.90;;;;;;5078543;22;20437;-77
2023/06/17 04:10:06;;;;;;;1999.90;999.90;;;16.10;99.90;;;;;;5054046;28;20397;-74
2023/06/17 04:12:33;;;;;;;1999.90;999.90;;;16.40;99.90;;;;;;5054200;28;20834;-75
2023/06/17 04:14:59;;;;;;;1999.90;999.90;;;16.50;99.90;;;;;;5052793;28;20479;-77
2023/06/17 04:17:27;;;;;;;1999.90;999.90;;;16.50;99.90;;;;;;5047505;28;20492;-76
2023/06/17 04:19:58;;;;;;;1999.90;999.90;;;16.50;99.90;;;;;;5032429;28;21198;-76
2023/06/17 04:22:25;;;;;;;1999.90;999.90;;;16.50;99.90;;;;;;5033537;28;20427;-76
2023/06/17 04:24:55;;;;;;;1999.90;999.90;;;16.40;99.90;;;;;;5033721;28;20415;-76
2023/06/17 04:27:22;;;;;;;1999.90;999.90;;;16.40;99.90;;;;;;5039577;28;20507;-76
2023/06/17 04:29:49;;;;;;;1999.90;999.90;;;16.40;99.90;;;;;;5043008;28;20427;-77
2023/06/17 04:32:16;;;;;;;1999.90;999.90;;;16.30;99.90;;;;;;5033143;28;20469;-77
2023/06/17 04:34:47;;;;;;;1999.90;999.90;;;16.40;99.90;;;;;;5033172;28;20429;-76
2023/06/17 04:37:14;;;;;;;1999.90;999.90;;;16.50;99.90;;;;;;5033201;28;20430;-75
2023/06/17 04:39:42;;;;;;;1999.90;999.90;;;16.50;99.90;;;;;;5039733;28;20444;-76
2023/06/17 04:42:09;;;;;;;1999.90;999.90;;;16.60;99.90;;;;;;5032094;28;20517;-77
2023/06/17 04:44:37;;;;;;;1999.90;999.90;;;16.80;99.90;;;;;;5049771;28;20421;-79
2023/06/17 04:47:04;;;;;;;1999.90;999.90;;;17.10;99.90;;;;;;5053590;28;20652;-74
2023/06/17 04:49:41;;;;;;;1999.90;999.90;;;17.50;99.90;;;;;;5048219;28;20425;-74
2023/06/17 04:52:09;;;;;;;1999.90;999.90;;;18.00;99.90;;;;;;5014080;28;20416;-75
2023/06/17 04:54:36;;;;;;;1999.90;999.90;;;17.90;99.90;;;;;;5013595;28;20519;-74
2023/06/17 04:57:03;;;;;;;1999.90;999.90;;;17.90;99.90;;;;;;5013488;28;20475;-76
2023/06/17 04:59:29;;;;;;;1999.90;999.90;;;18.10;99.90;;;;;;5013231;28;20424;-75
2023/06/17 05:01:56;;;;;;;1999.90;999.90;;;18.30;99.90;;;;;;5039190;28;20986;-75
2023/06/17 05:04:23;;;;;;;1999.90;999.90;;;18.40;99.90;;;;;;5038568;28;20465;-75
2023/06/17 05:06:49;;;;;;;1999.90;999.90;;;18.50;99.90;;;;;;5032624;28;20886;-76
2023/06/17 05:09:18;;;;;;;1999.90;999.90;;;18.80;99.90;;;;;;5032688;28;20949;-76
2023/06/17 05:11:45;;;;;;;1999.90;999.90;;;18.80;99.90;;;;;;5032555;28;20506;-75
2023/06/17 05:14:11;;;;;;;1999.90;999.90;;;19.00;99.90;;;;;;5043259;28;20429;-74
2023/06/17 05:16:38;;;;;;;1999.90;999.90;;;19.20;99.90;;;;;;5035134;28;20419;-76
2023/06/17 05:19:05;;;;;;;1999.90;999.90;;;19.10;99.90;;;;;;5032428;28;20920;-75
2023/06/17 05:21:31;;;;;;;1999.90;999.90;;;19.20;99.90;;;;;;5032297;28;20555;-75
2023/06/17 05:23:58;;;;;;;1999.90;999.90;;;19.10;99.90;;;;;;5032808;28;20422;-75
2023/06/17 05:26:27;;;;;;;1999.90;999.90;;;19.20;99.90;;;;;;5037852;28;20932;-75
2023/06/17 05:28:53;;;;;;;1999.90;999.90;;;19.20;99.90;;;;;;5043944;28;20823;-75
2023/06/17 05:31:20;;;;;;;1999.90;999.90;;;19.50;99.90;;;;;;5052437;28;20416;-75
2023/06/17 05:33:47;;;;;;;1999.90;999.90;;;19.20;99.90;;;;;;5052706;28;20409;-78
2023/06/17 05:36:14;;;;;;;1999.90;999.90;;;19.20;99.90;;;;;;5036781;28;20435;-75
2023/06/17 05:38:41;;;;;;;1999.90;999.90;;;19.20;99.90;;;;;;5032115;28;20817;-74
2023/06/17 05:41:07;;;;;;;1999.90;999.90;;;19.10;99.90;;;;;;5032231;28;20477;-75
2023/06/17 05:43:35;;;;;;;1999.90;999.90;;;19.10;99.90;;;;;;5032698;28;20419;-75
2023/06/17 05:46:02;;;;;;;1999.90;999.90;;;19.40;99.90;;;;;;5031950;28;20836;-75
2023/06/17 05:48:29;;;;;;;1999.90;999.90;;;19.50;99.90;;;;;;5033133;28;20443;-75
2023/06/17 05:50:55;;;;;;;1999.90;999.90;;;19.40;99.90;;;;;;5050456;28;20418;-75
2023/06/17 05:53:22;;;;;;;1999.90;999.90;;;19.50;99.90;;;;;;5051427;28;20822;-78
2023/06/17 05:55:48;;;;;;;1999.90;999.90;;;19.60;99.90;;;;;;5051559;28;20964;-75
2023/06/17 05:58:15;;;;;;;1999.90;999.90;;;19.60;99.90;;;;;;5051466;28;20467;-75
2023/06/17 06:00:44;;;;;;;1999.90;999.90;;;19.60;99.90;;;;;;5016140;28;20433;-73
2023/06/17 06:03:11;;;;;;;1999.90;999.90;;;19.60;99.90;;;;;;5036949;28;20417;-75
2023/06/17 06:05:37;;;;;;;1999.90;999.90;;;19.60;99.90;;;;;;5052108;28;20443;-75
2023/06/17 06:08:04;;;;;;;1999.90;999.90;;;19.60;99.90;;;;;;5051631;28;20417;-75
2023/06/17 06:10:32;;;;;;;1999.90;999.90;;;19.60;99.90;;;;;;5041072;28;20453;-77
2023/06/17 06:12:59;;;;;;;1999.90;999.90;;;19.70;99.90;;;;;;5032138;28;20423;-75
2023/06/17 06:15:26;;;;;;;1999.90;999.90;;;19.60;99.90;;;;;;5032119;28;20576;-74
2023/06/17 06:17:54;;;;;;;1999.90;999.90;;;19.70;99.90;;;;;;5031789;28;20407;-74
2023/06/17 06:20:21;;;;;;;1999.90;999.90;;;20.00;99.90;;;;;;5036060;28;20807;-75
2023/06/17 06:22:47;;;;;;;1999.90;999.90;;;19.80;99.90;;;;;;5042644;28;20922;-74
2023/06/17 06:25:14;;;;;;;1999.90;999.90;;;19.80;99.90;;;;;;5051793;28;20425;-75
2023/06/17 06:27:41;;;;;;;1999.90;999.90;;;19.80;99.90;;;;;;5050962;28;20911;-75
2023/06/17 06:30:09;;;;;;;1999.90;999.90;;;19.90;99.90;;;;;;5051187;28;20413;-74
2023/06/17 06:32:35;;;;;;;1999.90;999.90;;;19.70;99.90;;;;;;5043479;28;20465;-71
2023/06/17 06:35:04;;;;;;;1999.90;999.90;;;19.80;99.90;;;;;;5041497;28;20419;-74
2023/06/17 06:37:31;;;;;;;1999.90;999.90;;;19.70;99.90;;;;;;5031239;28;20419;-75
2023/06/17 06:39:57;;;;;;;1999.90;999.90;;;19.90;99.90;;;;;;5030907;28;20971;-74
2023/06/17 06:42:24;;;;;;;1999.90;999.90;;;20.00;99.90;;;;;;5035594;28;20487;-75
2023/06/17 06:44:51;;;;;;;1999.90;999.90;;;19.80;99.90;;;;;;5042673;28;20535;-74
2023/06/17 06:47:18;;;;;;;1999.90;999.90;;;20.00;99.90;;;;;;5051345;28;20416;-74
2023/06/17 06:49:44;;;;;;;1999.90;999.90;;;20.00;99.90;;;;;;5050660;28;20420;-74
2023/06/17 06:52:12;;;;;;;1999.90;999.90;;;20.10;99.90;;;;;;5046518;28;20429;-74
2023/06/17 06:54:39;;;;;;;1999.90;999.90;;;20.00;99.90;;;;;;5039698;28;20433;-75
2023/06/17 06:57:06;;;;;;;1999.90;999.90;;;19.90;99.90;;;;;;5042212;28;20421;-74
2023/06/17 06:59:33;;;;;;;1999.90;999.90;;;19.70;99.90;;;;;;5050349;28;20444;-75
2023/06/17 07:01:59;;;;;;;1999.90;999.90;;;19.80;99.90;;;;;;5050177;28;20410;-74
2023/06/17 07:04:26;;;;;;;1999.90;999.90;;;19.90;99.90;;;;;;5039785;28;20444;-75
2023/06/17 07:06:53;;;;;;;1999.90;999.90;;;20.00;99.90;;;;;;5041790;28;20896;-74
2023/06/17 07:09:22;;;;;;;1999.90;999.90;;;20.00;99.90;;;;;;5050471;28;20410;-76
2023/06/17 07:11:48;;;;;;;1999.90;999.90;;;19.90;99.90;;;;;;5050577;28;20953;-74
2023/06/17 07:14:15;;;;;;;1999.90;999.90;;;20.00;99.90;;;;;;5050540;28;20949;-75
2023/06/17 07:16:42;;;;;;;1999.90;999.90;;;20.00;99.90;;;;;;5040298;28;20421;-74
2023/06/17 07:19:08;;;;;;;1999.90;999.90;;;20.00;99.90;;;;;;5031006;28;20844;-74
2023/06/17 07:21:35;;;;;;;1999.90;999.90;;;20.10;99.90;;;;;;5029979;28;20516;-74
2023/06/17 07:24:01;;;;;;;1999.90;999.90;;;20.30;99.90;;;;;;5030463;28;20457;-75
2023/06/17 07:26:29;;;;;;;1999.90;999.90;;;20.40;99.90;;;;;;5029398;28;20418;-78
2023/06/17 07:28:56;;;;;;;1999.90;999.90;;;20.50;99.90;;;;;;5039189;28;20439;-75
2023/06/17 07:31:23;;;;;;;1999.90;999.90;;;20.60;99.90;;;;;;5041292;28;20418;-74
2023/06/17 07:33:50;;;;;;;1999.90;999.90;;;20.50;99.90;;;;;;5050461;28;20411;-77
2023/06/17 07:36:16;;;;;;;1999.90;999.90;;;20.50;99.90;;;;;;5049842;28;20964;-76
2023/06/17 07:38:43;;;;;;;1999.90;999.90;;;20.40;99.90;;;;;;5038943;28;20425;-75
2023/06/17 07:41:10;;;;;;;1999.90;999.90;;;20.40;99.90;;;;;;5051776;28;20455;-75
2023/06/17 07:43:38;;;;;;;1999.90;999.90;;;20.40;99.90;;;;;;5053890;28;21012;-76
2023/06/17 07:46:04;;;;;;;1999.90;999.90;;;20.30;99.90;;;;;;5053666;28;21066;-76
2023/06/17 07:48:32;;;;;;;1999.90;999.90;;;20.30;99.90;;;;;;5044716;28;20433;-77
2023/06/17 07:50:58;;;;;;;1999.90;999.90;;;20.50;99.90;;;;;;5038587;28;20460;-76
2023/06/17 07:53:25;;;;;;;1999.90;999.90;;;21.00;99.90;;;;;;5046943;28;20478;-78
2023/06/17 07:55:53;;;;;;;1999.90;999.90;;;20.70;99.90;;;;;;5053595;28;20421;-75
2023/06/17 07:58:20;;;;;;;1999.90;999.90;;;20.80;99.90;;;;;;5053637;28;20417;-76
2023/06/17 08:00:48;;;;;;;1999.90;999.90;;;21.40;99.90;;;;;;5047256;28;20959;-75
2023/06/17 08:03:15;;;;;;;1999.90;999.90;;;21.20;99.90;;;;;;5026622;28;20510;-75
2023/06/17 08:05:42;;;;;;;1999.90;999.90;;;21.10;99.90;;;;;;5045079;28;20419;-74
2023/06/17 08:08:08;;;;;;;1999.90;999.90;;;20.80;99.90;;;;;;5053294;28;20498;-75
2023/06/17 08:10:35;;;;;;;1999.90;999.90;;;20.60;99.90;;;;;;5048309;28;20433;-75
2023/06/17 08:13:02;;;;;;;1999.90;999.90;;;20.70;99.90;;;;;;5044294;28;20467;-76
2023/06/17 08:15:28;;;;;;;1999.90;999.90;;;20.90;99.90;;;;;;5053466;28;20413;-77
2023/06/17 08:17:56;;;;;;;1999.90;999.90;;;20.90;99.90;;;;;;5052986;28;20903;-76
2023/06/17 08:20:23;;;;;;;1999.90;999.90;;;20.90;99.90;;;;;;5046308;28;20487;-75
2023/06/17 08:22:50;;;;;;;1999.90;999.90;;;21.10;99.90;;;;;;5045715;28;20806;-76
2023/06/17 08:25:16;;;;;;;1999.90;999.90;;;21.10;99.90;;;;;;5045267;28;20483;-75
2023/06/17 08:27:47;;;;;;;1999.90;999.90;;;21.10;99.90;;;;;;5052831;28;20475;-76
2023/06/17 08:30:14;;;;;;;1999.90;999.90;;;21.10;99.90;;;;;;5052414;28;20424;-76
2023/06/17 08:32:41;;;;;;;1999.90;999.90;;;21.10;99.90;;;;;;5041001;28;20441;-76
2023/06/17 08:35:09;;;;;;;1999.90;999.90;;;21.20;99.90;;;;;;5042498;28;20437;-79
2023/06/17 08:37:36;;;;;;;1999.90;999.90;;;21.50;99.90;;;;;;5047413;28;20420;-76
2023/06/17 08:40:03;;;;;;;1999.90;999.90;;;21.80;99.90;;;;;;5052374;28;20468;-77
2023/06/17 08:42:30;;;;;;;1999.90;999.90;;;21.90;99.90;;;;;;5052712;28;20425;-77
2023/06/17 08:45:00;;;;;;;1999.90;999.90;;;21.90;99.90;;;;;;5047669;28;20491;-76
2023/06/17 08:47:27;;;;;;;1999.90;999.90;;;22.00;99.90;;;;;;5033340;28;20415;-77
2023/06/17 08:49:56;;;;;;;1999.90;999.90;;;22.00;99.90;;;;;;5033070;28;20423;-76
2023/06/17 08:52:26;;;;;;;1999.90;999.90;;;22.00;99.90;;;;;;5033202;28;20981;-76
2023/06/17 08:54:54;;;;;;;1999.90;999.90;;;22.00;99.90;;;;;;5033358;28;20905;-76
2023/06/17 08:57:21;;;;;;;1999.90;999.90;;;22.00;99.90;;;;;;5038593;28;20484;-76
2023/06/17 08:59:48;;;;;;;1999.90;999.90;;;22.20;99.90;;;;;;5040045;28;20827;-73
2023/06/17 09:02:15;;;;;;;1999.90;999.90;;;22.30;99.90;;;;;;5031946;28;20431;-76
2023/06/17 09:04:42;;;;;;;1999.90;999.90;;;22.20;99.90;;;;;;5031980;28;20449;-76
2023/06/17 09:07:09;;;;;;;1999.90;999.90;;;22.70;99.90;;;;;;5031318;28;20419;-76
2023/06/17 09:09:38;;;;;;;1999.90;999.90;;;22.50;99.90;;;;;;5040234;28;20419;-78
2023/06/17 09:12:06;;;;;;;1999.90;999.90;;;22.60;99.90;;;;;;5050533;28;20467;-76
2023/06/17 09:14:33;;;;;;;1999.90;999.90;;;22.60;99.90;;;;;;5052357;28;20416;-75
2023/06/17 09:17:00;;;;;;;1999.90;999.90;;;22.50;99.90;;;;;;5051978;28;20846;-79
2023/06/17 09:19:30;;;;;;;1999.90;999.90;;;22.60;99.90;;;;;;5045180;28;20439;-76
2023/06/17 09:21:58;;;;;;;1999.90;999.90;;;22.70;99.90;;;;;;5038900;28;20429;-76
2023/06/17 09:24:29;;;;;;;1999.90;999.90;;;23.00;99.90;;;;;;5044913;28;20417;-77
2023/06/17 09:26:57;;;;;;;1999.90;999.90;;;23.00;99.90;;;;;;5052103;28;20517;-76
2023/06/17 09:29:24;;;;;;;1999.90;999.90;;;22.70;99.90;;;;;;5047246;28;20435;-74
2023/06/17 09:31:52;;;;;;;1999.90;999.90;;;22.50;99.90;;;;;;5039722;28;20412;-76
2023/06/17 09:34:20;;;;;;;1999.90;999.90;;;22.40;99.90;;;;;;5031930;28;20418;-76
2023/06/17 09:36:47;;;;;;;1999.90;999.90;;;22.30;99.90;;;;;;5031644;28;20893;-74
2023/06/17 09:39:14;;;;;;;1999.90;999.90;;;22.20;99.90;;;;;;5031760;28;20425;-77
2023/06/17 09:41:42;;;;;;;1999.90;999.90;;;22.50;99.90;;;;;;5030093;28;20445;-76
2023/06/17 09:44:11;;;;;;;1999.90;999.90;;;22.50;99.90;;;;;;5034454;28;20439;-76
2023/06/17 09:46:39;;;;;;;1999.90;999.90;;;22.50;99.90;;;;;;5042574;28;20989;-76
2023/06/17 09:49:12;;;;;;;1999.90;999.90;;;22.60;99.90;;;;;;5051168;28;20413;-79
2023/06/17 09:51:40;;;;;;;1999.90;999.90;;;22.70;99.90;;;;;;5050585;28;20872;-76
2023/06/17 09:54:07;;;;;;;1999.90;999.90;;;22.70;99.90;;;;;;5045468;28;20434;-77
2023/06/17 09:56:35;;;;;;;1999.90;999.90;;;22.70;99.90;;;;;;5039604;28;20509;-79
2023/06/17 09:59:03;;;;;;;1999.90;999.90;;;22.90;99.90;;;;;;5031514;28;20490;-76
2023/06/17 10:01:31;;;;;;;1999.90;999.90;;;23.00;99.90;;;;;;5030384;28;20431;-76
2023/06/17 10:03:58;;;;;;;1999.90;999.90;;;23.20;99.90;;;;;;5029926;28;20504;-76
2023/06/17 10:06:28;;;;;;;1999.90;999.90;;;23.30;99.90;;;;;;5042682;28;20425;-75
2023/06/17 10:08:56;;;;;;;1999.90;999.90;;;23.30;99.90;;;;;;5078259;22;20434;-77
2023/06/17 10:11:24;;;;;;;1999.90;999.90;;;23.50;99.90;;;;;;5057425;28;20448;-75
2023/06/17 10:13:55;;;;;;;1999.90;999.90;;;23.30;99.90;;;;;;5051036;28;20914;-75
2023/06/17 10:16:25;;;;;;;1999.90;999.90;;;23.10;99.90;;;;;;5061247;28;20508;-75
2023/06/17 10:18:56;;;;;;;1999.90;999.90;;;23.10;99.90;;;;;;5075031;28;20415;-75
2023/06/17 10:21:26;;;;;;;1999.90;999.90;;;23.40;99.90;;;;;;5071263;28;20481;-75
2023/06/17 10:23:54;;;;;;;1999.90;999.90;;;23.30;99.90;;;;;;5071400;28;20419;-77
2023/06/17 10:26:22;;;;;;;1999.90;999.90;;;23.40;99.90;;;;;;5071526;28;20466;-75
2023/06/17 10:28:59;;;;;;;1999.90;999.90;;;23.20;99.90;;;;;;5069763;28;20443;-76
2023/06/17 10:31:27;;;;;;;1999.90;999.90;;;23.20;99.90;;;;;;5055658;28;20433;-75
2023/06/17 10:33:57;;;;;;;1999.90;999.90;;;23.20;99.90;;;;;;5070689;28;20415;-74
2023/06/17 10:36:25;;;;;;;1999.90;999.90;;;23.30;99.90;;;;;;5070660;28;20415;-74
2023/06/17 10:38:56;;;;;;;1999.90;999.90;;;23.00;99.90;;;;;;5070576;28;20423;-75
2023/06/17 10:41:23;;;;;;;1999.90;999.90;;;22.80;99.90;;;;;;5064707;28;20526;-75
2023/06/17 10:43:50;;;;;;;1999.90;999.90;;;23.00;99.90;;;;;;5070792;28;20411;-74
2023/06/17 10:46:25;;;;;;;1999.90;999.90;;;23.20;99.90;;;;;;5070352;28;20407;-75
2023/06/17 10:48:51;;;;;;;1999.90;999.90;;;23.30;99.90;;;;;;5070760;28;20885;-75
2023/06/17 10:51:23;;;;;;;1999.90;999.90;;;23.40;99.90;;;;;;5070887;28;20404;-75
2023/06/17 10:53:50;;;;;;;1999.90;999.90;;;23.70;99.90;;;;;;5066290;28;20438;-75
2023/06/17 10:56:17;;;;;;;1999.90;999.90;;;23.80;99.90;;;;;;5070809;28;20415;-76
2023/06/17 10:58:46;;;;;;;1999.90;999.90;;;23.90;99.90;;;;;;5070502;28;20443;-76
2023/06/17 11:01:13;;;;;;;1999.90;999.90;;;24.00;99.90;;;;;;5069540;28;20802;-76
2023/06/17 11:03:40;;;;;;;1999.90;999.90;;;24.10;99.90;;;;;;5069542;28;20465;-76
2023/06/17 11:06:08;;;;;;;1999.90;999.90;;;24.20;99.90;;;;;;5066007;28;20427;-76
2023/06/17 11:08:38;;;;;;;1999.90;999.90;;;24.40;99.90;;;;;;5070387;28;20526;-76
2023/06/17 11:11:09;;;;;;;1999.90;999.90;;;24.20;99.90;;;;;;5069883;28;20495;-75
2023/06/17 11:13:37;;;;;;;1999.90;999.90;;;24.10;99.90;;;;;;5070178;28;20451;-76
2023/06/17 11:16:04;;;;;;;1999.90;999.90;;;23.90;99.90;;;;;;5056436;28;20497;-76
2023/06/17 11:18:30;;;;;;;1999.90;999.90;;;23.90;99.90;;;;;;5074303;28;20473;-75
2023/06/17 11:20:57;;;;;;;1999.90;999.90;;;23.90;99.90;;;;;;5074073;28;20411;-76
2023/06/17 11:23:26;;;;;;;1999.90;999.90;;;24.00;99.90;;;;;;5074098;28;20449;-76
2023/06/17 11:25:54;;;;;;;1999.90;999.90;;;24.20;99.90;;;;;;5070971;28;20439;-76
2023/06/17 11:28:21;;;;;;;1999.90;999.90;;;24.50;99.90;;;;;;5058083;28;20415;-76
2023/06/17 11:30:48;;;;;;;1999.90;999.90;;;24.50;99.90;;;;;;5074035;28;20408;-76
2023/06/17 11:33:15;;;;;;;1999.90;999.90;;;24.40;99.90;;;;;;5073418;28;20953;-75
2023/06/17 11:35:43;;;;;;;1999.90;999.90;;;24.70;99.90;;;;;;5058652;28;20430;-76
2023/06/17 11:38:11;;;;;;;1999.90;999.90;;;24.50;99.90;;;;;;5062226;28;20913;-76
2023/06/17 11:40:41;;;;;;;1999.90;999.90;;;24.40;99.90;;;;;;5073873;28;20928;-75
2023/06/17 11:43:10;;;;;;;1999.90;999.90;;;24.60;99.90;;;;;;5073465;28;20419;-76
2023/06/17 11:45:37;;;;;;;1999.90;999.90;;;24.70;99.90;;;;;;5060286;28;20430;-76
2023/06/17 11:48:05;;;;;;;1999.90;999.90;;;24.70;99.90;;;;;;5069380;28;20454;-76
2023/06/17 11:50:32;;;;;;;1999.90;999.90;;;24.60;99.90;;;;;;5073863;28;20415;-76
2023/06/17 11:53:02;;;;;;;1999.90;999.90;;;24.70;99.90;;;;;;5073601;28;20407;-76
2023/06/17 11:55:32;;;;;;;1999.90;999.90;;;25.00;99.90;;;;;;5063765;28;20506;-76
2023/06/17 11:58:00;;;;;;;1999.90;999.90;;;25.10;99.90;;;;;;5064898;28;20427;-76
2023/06/17 12:00:29;;;;;;;1999.90;999.90;;;25.50;99.90;;;;;;5073459;28;20465;-75